Data for 09/22/2010

Time Sea-Level Adjusted Pressure Absolute Pressure Temperature Relative Humidity Dew Point   
(mb) (inHg) (mb) (inHg) (C) (F) (%) (C) (F)
00:05 1011 29.85 841 24.83 8.6 47.5 84 6.1 43
00:10 1012 29.88 841 24.83 8.6 47.4 84 6 42.9
00:15 1012 29.88 841 24.83 8.5 47.4 84 6 42.8
00:20 1012 29.88 841 24.83 8.4 47.1 85 6 42.9
00:25 1012 29.88 841 24.83 8.4 47 85 6 42.8
00:30 1012 29.88 841 24.83 8.3 47 85 6 42.8
00:35 1012 29.88 841 24.83 8.3 46.9 86 6 42.8
00:40 1012 29.88 841 24.83 8.2 46.7 86 6 42.8
00:45 1012 29.88 841 24.83 8.1 46.6 86 5.9 42.7
00:50 1012 29.88 841 24.83 8 46.5 86 5.9 42.6
00:55 1012 29.88 841 24.83 8 46.4 86 5.9 42.6
01:00 1012 29.88 841 24.83 8.1 46.5 86 5.9 42.6
01:05 1012 29.88 841 24.83 8.1 46.5 86 5.8 42.5
01:10 1012 29.88 841 24.83 8 46.4 86 5.9 42.5
01:15 1012 29.88 841 24.83 7.9 46.3 87 5.9 42.6
01:20 1012 29.88 841 24.83 7.9 46.2 87 5.8 42.5
01:25 1012 29.88 841 24.83 7.9 46.2 87 5.8 42.5
01:30 1012 29.88 841 24.83 7.8 46.1 87 5.8 42.5
01:35 1012 29.88 841 24.83 7.8 46 87 5.8 42.5
01:40 1012 29.88 841 24.83 7.7 45.9 88 5.8 42.4
01:45 1012 29.88 841 24.83 7.7 45.8 88 5.8 42.4
01:50 1012 29.88 841 24.83 7.6 45.7 88 5.7 42.3
01:55 1012 29.88 841 24.83 7.6 45.8 88 5.8 42.4
02:00 1012 29.88 842 24.86 7.6 45.6 88 5.7 42.3
02:05 1012 29.88 842 24.86 7.6 45.7 88 5.7 42.3
02:10 1012 29.88 842 24.86 7.6 45.7 88 5.7 42.2
02:15 1012 29.88 842 24.86 7.6 45.6 88 5.7 42.2
02:20 1012 29.88 842 24.86 7.6 45.6 88 5.6 42.2
02:25 1013 29.91 842 24.86 7.6 45.7 87 5.6 42.1
02:30 1013 29.91 842 24.86 7.6 45.7 88 5.7 42.2
02:35 1013 29.91 842 24.86 7.6 45.7 87 5.7 42.2
02:40 1013 29.91 842 24.86 7.7 45.8 87 5.7 42.2
02:45 1012 29.88 842 24.86 7.7 45.8 87 5.6 42.1
02:50 1012 29.88 842 24.86 7.7 45.8 87 5.6 42
02:55 1012 29.88 842 24.86 7.7 45.8 87 5.6 42
03:00 1012 29.88 842 24.86 7.7 45.8 86 5.5 42
03:05 1012 29.88 842 24.86 7.7 45.8 86 5.5 41.9
03:10 1012 29.88 842 24.86 7.6 45.7 86 5.5 41.8
03:15 1012 29.88 842 24.86 7.6 45.7 86 5.4 41.7
03:20 1012 29.88 842 24.86 7.7 45.8 85 5.4 41.7
03:25 1012 29.88 842 24.86 7.7 45.8 85 5.3 41.6
03:30 1012 29.88 841 24.83 7.7 45.9 85 5.4 41.7
03:35 1012 29.88 841 24.83 7.8 46 85 5.4 41.7
03:40 1012 29.88 842 24.86 7.8 46 85 5.4 41.7
03:45 1012 29.88 842 24.86 7.8 46 85 5.4 41.7
03:50 1012 29.88 841 24.83 7.8 46 85 5.4 41.7
03:55 1012 29.88 841 24.83 7.8 46 85 5.4 41.7
04:00 1012 29.88 841 24.83 7.8 46 85 5.4 41.7
04:05 1012 29.88 841 24.83 7.7 45.9 85 5.4 41.7
04:10 1012 29.88 841 24.83 7.7 45.9 85 5.4 41.6
04:15 1012 29.88 841 24.83 7.7 45.8 85 5.3 41.6
04:20 1012 29.88 841 24.83 7.7 45.8 85 5.3 41.6
04:25 1012 29.88 841 24.83 7.7 45.9 85 5.4 41.6
04:30 1012 29.88 841 24.83 7.7 45.9 85 5.4 41.6
04:35 1012 29.88 841 24.83 7.7 45.9 85 5.4 41.7
04:40 1012 29.88 842 24.86 7.7 45.9 85 5.4 41.7
04:45 1012 29.88 842 24.86 7.7 45.9 86 5.5 41.9
04:50 1012 29.88 842 24.86 7.7 45.8 86 5.4 41.8
04:55 1012 29.88 842 24.86 7.6 45.7 88 5.7 42.3
05:00 1013 29.91 842 24.86 7.7 45.8 87 5.7 42.2
05:05 1013 29.91 842 24.86 7.6 45.6 86 5.3 41.6
05:10 1013 29.91 842 24.86 7.2 44.9 88 5.2 41.4
05:15 1013 29.91 842 24.86 7.1 44.8 87 5 41
05:20 1012 29.88 842 24.86 6.9 44.3 88 5 41
05:25 1012 29.88 842 24.86 6.6 43.9 89 4.9 40.8
05:30 1012 29.88 842 24.86 6.5 43.8 89 4.8 40.7
05:35 1012 29.88 842 24.86 6.4 43.6 89 4.8 40.6
05:40 1012 29.88 842 24.86 6.5 43.6 89 4.8 40.7
05:45 1012 29.88 842 24.86 6.5 43.7 89 4.9 40.8
05:50 1012 29.88 842 24.86 6.5 43.6 89 4.8 40.6
05:55 1012 29.88 842 24.86 6.4 43.4 89 4.7 40.5
06:00 1012 29.88 842 24.86 6.3 43.4 89 4.7 40.5
06:05 1012 29.88 842 24.86 6.4 43.5 90 4.8 40.6
06:10 1012 29.88 842 24.86 6.4 43.5 90 4.8 40.7
06:15 1012 29.88 842 24.86 6.4 43.5 90 4.8 40.7
06:20 1012 29.88 842 24.86 6.4 43.5 90 4.8 40.6
06:25 1012 29.88 842 24.86 6.5 43.6 89 4.8 40.7
06:30 1012 29.88 842 24.86 6.6 43.9 89 4.9 40.8
06:35 1013 29.91 842 24.86 6.5 43.7 89 4.8 40.7
06:40 1013 29.91 842 24.86 6.5 43.7 89 4.9 40.7
06:45 1013 29.91 842 24.86 6.6 43.9 89 4.9 40.9
06:50 1013 29.91 842 24.86 6.7 44 89 4.9 40.8
06:55 1013 29.91 842 24.86 6.5 43.7 89 4.8 40.6
07:00 1013 29.91 842 24.86 6.3 43.3 90 4.8 40.6
07:05 1013 29.91 842 24.86 6.5 43.6 89 4.7 40.5
07:10 1013 29.91 842 24.86 6.5 43.6 89 4.8 40.7
07:15 1013 29.91 842 24.86 6.3 43.4 90 4.8 40.6
07:20 1013 29.91 842 24.86 6.3 43.3 90 4.8 40.6
07:25 1013 29.91 842 24.86 6.3 43.3 90 4.8 40.7
07:30 1013 29.91 842 24.86 6.3 43.3 91 4.9 40.8
07:35 1013 29.91 842 24.86 6.5 43.6 90 4.9 40.8
07:40 1013 29.91 842 24.86 6.5 43.7 90 4.9 40.9
07:45 1013 29.91 842 24.86 6.4 43.6 90 4.9 40.8
07:50 1013 29.91 842 24.86 6.4 43.5 90 4.9 40.8
07:55 1013 29.91 842 24.86 6.4 43.6 90 4.8 40.7
08:00 1013 29.91 842 24.86 6.5 43.7 90 5 40.9
08:05 1013 29.91 842 24.86 6.5 43.8 90 5 40.9
08:10 1013 29.91 842 24.86 6.6 43.8 89 4.9 40.9
08:15 1013 29.91 842 24.86 6.6 43.9 89 4.9 40.8
08:20 1013 29.91 842 24.86 6.7 44 89 5 40.9
08:25 1013 29.91 842 24.86 6.8 44.2 88 5 40.9
08:30 1013 29.91 842 24.86 6.7 44 88 4.9 40.9
08:35 1013 29.91 842 24.86 6.7 44 89 4.9 40.8
08:40 1013 29.91 842 24.86 6.7 44.1 89 5 41
08:45 1013 29.91 842 24.86 6.8 44.3 88 5 41
08:50 1013 29.91 842 24.86 6.9 44.5 87 5 41
08:55 1013 29.91 842 24.86 6.9 44.4 88 5 41
09:00 1013 29.91 842 24.86 7 44.6 87 5 41
09:05 1013 29.91 842 24.86 7.2 44.9 87 5.1 41.1
09:10 1013 29.91 842 24.86 7.3 45.1 86 5.1 41.1
09:15 1013 29.91 842 24.86 7.4 45.2 86 5.1 41.2
09:20 1013 29.91 842 24.86 7.3 45.1 88 5.4 41.7
09:25 1013 29.91 842 24.86 7.5 45.6 86 5.3 41.6
09:30 1013 29.91 842 24.86 7.7 45.8 84 5.2 41.4
09:35 1013 29.91 842 24.86 7.7 45.8 84 5.2 41.4
09:40 1013 29.91 842 24.86 7.8 46 84 5.2 41.4
09:45 1013 29.91 842 24.86 7.7 45.8 84 5.2 41.4
09:50 1013 29.91 842 24.86 7.6 45.6 84 5.1 41.1
09:55 1013 29.91 842 24.86 7.8 46 82 5 40.9
10:00 1013 29.91 842 24.86 7.9 46.2 81 4.9 40.8
10:05 1013 29.91 842 24.86 7.9 46.2 81 4.9 40.9
10:10 1013 29.91 842 24.86 7.9 46.1 82 5 41
10:15 1013 29.91 842 24.86 7.7 45.9 83 5 40.9
10:20 1013 29.91 842 24.86 7.6 45.7 83 4.9 40.8
10:25 1013 29.91 842 24.86 7.6 45.6 83 4.8 40.6
10:30 1013 29.91 842 24.86 7.6 45.6 83 4.8 40.6
10:35 1013 29.91 842 24.86 7.6 45.7 82 4.7 40.5
10:40 1013 29.91 842 24.86 7.6 45.6 81 4.6 40.3
10:45 1013 29.91 842 24.86 7.7 45.8 81 4.7 40.4
10:50 1013 29.91 842 24.86 7.8 46 81 4.7 40.5
10:55 1013 29.91 842 24.86 7.8 46.1 80 4.7 40.4
11:00 1013 29.91 842 24.86 7.7 45.9 81 4.7 40.5
11:05 1013 29.91 842 24.86 7.7 45.9 81 4.7 40.4
11:10 1013 29.91 842 24.86 7.8 46.1 81 4.7 40.5
11:15 1013 29.91 842 24.86 8 46.3 80 4.8 40.6
11:20 1013 29.91 842 24.86 8.1 46.5 79 4.6 40.3
11:25 1013 29.91 842 24.86 8 46.3 81 4.8 40.7
11:30 1013 29.91 842 24.86 8.1 46.5 80 4.9 40.8
11:35 1013 29.91 842 24.86 8.2 46.7 79 4.8 40.7
11:40 1013 29.91 842 24.86 8.2 46.8 79 4.7 40.5
11:45 1013 29.91 842 24.86 8.2 46.7 79 4.8 40.6
11:50 1013 29.91 842 24.86 8.3 47 78 4.6 40.3
11:55 1013 29.91 842 24.86 8.4 47.1 78 4.8 40.6
12:00 1013 29.91 842 24.86 8.3 46.9 79 4.9 40.7
12:05 1013 29.91 842 24.86 8.4 47.1 78 4.8 40.6
12:10 1013 29.91 842 24.86 8.4 47.1 78 4.8 40.7
12:15 1013 29.91 842 24.86 8.3 47 78 4.8 40.6
12:20 1013 29.91 842 24.86 8.4 47.1 78 4.7 40.5
12:25 1013 29.91 842 24.86 8.3 46.9 77 4.6 40.2
12:30 1013 29.91 842 24.86 8.3 47 78 4.6 40.4
12:35 1013 29.91 842 24.86 8.4 47.1 77 4.5 40.2
12:40 1013 29.91 842 24.86 8.5 47.2 76 4.5 40.1
12:45 1012 29.88 842 24.86 8.5 47.2 76 4.5 40.1
12:50 1012 29.88 842 24.86 8.4 47.1 76 4.5 40
12:55 1012 29.88 842 24.86 8.5 47.3 76 4.4 40
13:00 1012 29.88 842 24.86 8.4 47.2 75 4.3 39.8
13:05 1012 29.88 842 24.86 8.6 47.4 74 4.2 39.6
13:10 1012 29.88 842 24.86 8.6 47.5 75 4.4 40
13:15 1012 29.88 842 24.86 8.6 47.4 75 4.4 39.9
13:20 1012 29.88 842 24.86 8.6 47.5 75 4.4 40
13:25 1012 29.88 842 24.86 8.7 47.6 75 4.5 40.1
13:30 1012 29.88 842 24.86 8.8 47.9 74 4.4 39.9
13:35 1012 29.88 842 24.86 8.9 48 73 4.4 39.9
13:40 1012 29.88 842 24.86 8.9 48 74 4.5 40.1
13:45 1012 29.88 842 24.86 8.7 47.7 75 4.6 40.3
13:50 1012 29.88 842 24.86 8.8 47.8 76 4.9 40.7
13:55 1012 29.88 842 24.86 8.9 47.9 73 4.4 39.9
14:00 1012 29.88 842 24.86 9.1 48.4 73 4.6 40.3
14:05 1012 29.88 842 24.86 9.2 48.5 74 4.8 40.6
14:10 1012 29.88 842 24.86 9.2 48.5 74 4.9 40.7
14:15 1012 29.88 841 24.83 9.1 48.4 74 4.7 40.5
14:20 1012 29.88 842 24.86 9.2 48.6 74 4.8 40.7
14:25 1012 29.88 842 24.86 9 48.1 74 4.5 40.1
14:30 1012 29.88 841 24.83 8.9 48 75 4.7 40.5
14:35 1012 29.88 841 24.83 9 48.1 75 4.8 40.6
14:40 1012 29.88 841 24.83 8.8 47.8 75 4.7 40.4
14:45 1012 29.88 841 24.83 8.9 48 75 4.8 40.6
14:50 1012 29.88 841 24.83 9 48.2 76 4.9 40.9
14:55 1012 29.88 841 24.83 8.8 47.8 77 4.9 40.8
15:00 1012 29.88 841 24.83 8.5 47.3 77 4.7 40.5
15:05 1012 29.88 841 24.83 8.7 47.6 75 4.6 40.2
15:10 1012 29.88 841 24.83 8.9 47.9 74 4.5 40.1
15:15 1012 29.88 841 24.83 8.9 48 75 4.8 40.6
15:20 1012 29.88 841 24.83 8.8 47.8 75 4.6 40.3
15:25 1012 29.88 841 24.83 8.7 47.7 76 4.8 40.7
15:30 1012 29.88 841 24.83 8.7 47.6 75 4.5 40.1
15:35 1012 29.88 841 24.83 8.7 47.6 77 4.9 40.8
15:40 1012 29.88 841 24.83 8.6 47.5 76 4.7 40.5
15:45 1012 29.88 841 24.83 8.6 47.4 76 4.7 40.4
15:50 1012 29.88 841 24.83 8.6 47.4 76 4.6 40.3
15:55 1012 29.88 841 24.83 8.6 47.5 75 4.5 40.2
16:00 1012 29.88 841 24.83 8.6 47.5 76 4.7 40.4
16:05 1012 29.88 841 24.83 8.8 47.8 75 4.6 40.3
16:10 1012 29.88 841 24.83 8.7 47.6 76 4.7 40.4
16:15 1012 29.88 841 24.83 8.6 47.4 74 4.3 39.7
16:20 1012 29.88 841 24.83 8.5 47.3 75 4.3 39.7
16:25 1012 29.88 841 24.83 8.5 47.4 75 4.3 39.8
16:30 1012 29.88 841 24.83 8.3 47 76 4.4 39.9
16:35 1012 29.88 841 24.83 8.3 46.9 76 4.3 39.7
16:40 1012 29.88 841 24.83 8.3 46.9 76 4.3 39.7
16:45 1012 29.88 841 24.83 8.2 46.8 76 4.4 39.8
16:50 1012 29.88 841 24.83 8.2 46.8 77 4.4 40
16:55 1012 29.88 841 24.83 8.2 46.8 76 4.3 39.8
17:00 1012 29.88 841 24.83 8.2 46.7 77 4.4 39.9
17:05 1012 29.88 841 24.83 8.1 46.7 77 4.4 39.9
17:10 1012 29.88 841 24.83 8.1 46.7 77 4.4 39.8
17:15 1012 29.88 841 24.83 8.2 46.7 77 4.3 39.8
17:20 1012 29.88 841 24.83 8.2 46.7 76 4.3 39.7
17:25 1012 29.88 841 24.83 8.2 46.7 76 4.3 39.7
17:30 1012 29.88 842 24.86 8.1 46.5 77 4.2 39.6
17:35 1012 29.88 842 24.86 8.1 46.5 77 4.3 39.7
17:40 1013 29.91 842 24.86 8.1 46.5 77 4.2 39.6
17:45 1013 29.91 842 24.86 8.1 46.5 76 4.2 39.5
17:50 1012 29.88 842 24.86 8.1 46.5 76 4.1 39.4
17:55 1012 29.88 842 24.86 8.1 46.5 77 4.3 39.7
18:00 1013 29.91 842 24.86 8.1 46.5 77 4.2 39.6
18:05 1013 29.91 842 24.86 8.1 46.5 76 4.2 39.5
18:10 1013 29.91 842 24.86 8.1 46.5 76 4.1 39.4
18:15 1013 29.91 842 24.86 8.1 46.5 76 4.1 39.4
18:20 1013 29.91 842 24.86 8.1 46.5 76 4.2 39.5
18:25 1013 29.91 842 24.86 8.1 46.6 76 4.1 39.3
18:30 1013 29.91 842 24.86 8.1 46.6 76 4.1 39.3
18:35 1013 29.91 842 24.86 8.1 46.5 76 4 39.3
18:40 1013 29.91 842 24.86 8 46.4 76 4 39.2
18:45 1013 29.91 842 24.86 8 46.3 76 4 39.2
18:50 1013 29.91 842 24.86 7.9 46.3 77 4.1 39.4
18:55 1013 29.91 842 24.86 7.9 46.2 77 4.1 39.3
19:00 1013 29.91 842 24.86 7.9 46.1 76 4 39.2
19:05 1013 29.91 842 24.86 7.9 46.1 77 4 39.3
19:10 1013 29.91 842 24.86 7.8 46.1 77 4 39.2
19:15 1013 29.91 842 24.86 7.8 46 77 4 39.3
19:20 1013 29.91 842 24.86 7.8 46 77 3.9 39.1
19:25 1013 29.91 842 24.86 7.7 45.9 77 4 39.2
19:30 1013 29.91 842 24.86 7.7 45.9 77 3.9 38.9
19:35 1013 29.91 842 24.86 7.6 45.8 78 4 39.2
19:40 1013 29.91 842 24.86 7.6 45.7 78 4 39.2
19:45 1013 29.91 842 24.86 7.6 45.6 78 4 39.2
19:50 1013 29.91 842 24.86 7.6 45.6 78 3.9 39.1
19:55 1013 29.91 842 24.86 7.6 45.6 78 4 39.1
20:00 1013 29.91 842 24.86 7.6 45.6 78 4 39.2
20:05 1013 29.91 842 24.86 7.6 45.6 78 4 39.2
20:10 1013 29.91 842 24.86 7.6 45.6 78 4 39.2
20:15 1013 29.91 842 24.86 7.5 45.5 78 4 39.2
20:20 1013 29.91 842 24.86 7.5 45.4 79 4 39.2
20:25 1013 29.91 842 24.86 7.4 45.4 79 4 39.3
20:30 1013 29.91 842 24.86 7.4 45.3 79 4.1 39.4
20:35 1013 29.91 842 24.86 7.3 45.2 80 4.1 39.4
20:40 1013 29.91 842 24.86 7.3 45.1 80 4.1 39.3
20:45 1013 29.91 842 24.86 7.2 45 81 4.1 39.4
20:50 1013 29.91 842 24.86 7.2 44.9 81 4.1 39.4
20:55 1013 29.91 842 24.86 7.1 44.8 82 4.2 39.5
21:00 1013 29.91 842 24.86 7.1 44.7 82 4.2 39.6
21:05 1013 29.91 842 24.86 7 44.6 82 4.1 39.5
21:10 1013 29.91 842 24.86 7 44.6 82 4.2 39.6
21:15 1013 29.91 842 24.86 7 44.5 83 4.2 39.6
21:20 1013 29.91 843 24.89 6.9 44.4 83 4.2 39.5
21:25 1013 29.91 843 24.89 6.9 44.5 83 4.2 39.5
21:30 1013 29.91 843 24.89 6.9 44.5 83 4.2 39.6
21:35 1014 29.94 843 24.89 6.9 44.5 83 4.2 39.6
21:40 1014 29.94 843 24.89 6.9 44.5 83 4.2 39.6
21:45 1014 29.94 843 24.89 6.9 44.4 83 4.2 39.6
21:50 1014 29.94 843 24.89 6.9 44.4 83 4.2 39.6
21:55 1014 29.94 843 24.89 6.9 44.4 84 4.3 39.8
22:00 1014 29.94 843 24.89 6.8 44.2 84 4.3 39.8
22:05 1014 29.94 843 24.89 6.7 44.1 85 4.3 39.8
22:10 1014 29.94 843 24.89 6.7 44 85 4.3 39.7
22:15 1014 29.94 843 24.89 6.7 44.1 85 4.4 39.8
22:20 1014 29.94 843 24.89 6.6 44 85 4.3 39.8
22:25 1014 29.94 843 24.89 6.6 43.9 85 4.3 39.7
22:30 1014 29.94 843 24.89 6.6 43.9 85 4.3 39.7
22:35 1014 29.94 843 24.89 6.6 43.8 85 4.3 39.7
22:40 1014 29.94 843 24.89 6.5 43.8 85 4.3 39.7
22:45 1014 29.94 843 24.89 6.5 43.7 86 4.3 39.7
22:50 1014 29.94 843 24.89 6.5 43.6 86 4.3 39.7
22:55 1014 29.94 843 24.89 6.4 43.6 86 4.3 39.7
23:00 1014 29.94 843 24.89 6.4 43.6 86 4.3 39.7
23:05 1014 29.94 843 24.89 6.5 43.6 85 4.2 39.6
23:10 1014 29.94 843 24.89 6.5 43.6 85 4.2 39.6
23:15 1014 29.94 843 24.89 6.5 43.6 85 4.2 39.6
23:20 1013 29.91 843 24.89 6.5 43.6 85 4.2 39.6
23:25 1013 29.91 843 24.89 6.5 43.7 85 4.2 39.6
23:30 1013 29.91 843 24.89 6.5 43.7 85 4.1 39.5
23:35 1013 29.91 843 24.89 6.5 43.8 85 4.1 39.5
23:40 1013 29.91 843 24.89 6.5 43.8 85 4.2 39.6
23:45 1013 29.91 843 24.89 6.5 43.7 85 4.2 39.5
23:50 1013 29.91 843 24.89 6.5 43.6 85 4.2 39.5
23:55 1013 29.91 843 24.89 6.4 43.6 85 4.2 39.5
24:00 1013 29.91 843 24.89 6.4 43.6 86 4.3 39.7